Time;durP1;ratioP1;P1;durP2;ratioP2;P2;SDS_P1;SDS_P2;PMS_P1;PMS_P2;Temp;Humidity;BMP_temperature;BMP_pressure;BME280_temperature;BME280_humidity;BME280_pressure;Samples;Min_cycle;Max_cycle;Signal;HPM_P1;HPM_P2
2021/04/30 00:02:18;;;;;;;24.73;15.63;;;;;;;;;;4824225;29;20504;-71
2021/04/30 00:04:44;;;;;;;24.83;13.80;;;;;;;;;;4825908;29;20087;-72
2021/04/30 00:07:10;;;;;;;21.27;13.52;;;;;;;;;;4832265;29;20031;-75
2021/04/30 00:09:36;;;;;;;20.63;13.25;;;;;;;;;;4830209;29;20047;-74
2021/04/30 00:12:03;;;;;;;21.95;13.40;;;;;;;;;;4811108;29;20046;-74
2021/04/30 00:14:29;;;;;;;23.88;14.98;;;;;;;;;;4835853;29;20038;-73
2021/04/30 00:16:55;;;;;;;21.42;14.30;;;;;;;;;;4831390;29;20026;-74
2021/04/30 00:19:22;;;;;;;28.70;14.55;;;;;;;;;;4827440;29;20045;-71
2021/04/30 00:21:48;;;;;;;23.15;13.38;;;;;;;;;;4837599;29;20421;-73
2021/04/30 00:24:15;;;;;;;28.20;13.88;;;;;;;;;;4839491;29;20034;-74
2021/04/30 00:26:42;;;;;;;23.55;14.85;;;;;;;;;;4829043;29;20030;-73
2021/04/30 00:29:08;;;;;;;29.30;16.45;;;;;;;;;;4823901;29;20404;-74
2021/04/30 00:31:35;;;;;;;25.63;16.80;;;;;;;;;;4827742;29;20030;-73
2021/04/30 00:34:02;;;;;;;29.20;18.30;;;;;;;;;;4824133;29;20405;-72
2021/04/30 00:36:28;;;;;;;29.55;17.20;;;;;;;;;;4822658;29;20402;-74
2021/04/30 00:38:54;;;;;;;28.48;17.60;;;;;;;;;;4823079;29;20034;-73
2021/04/30 00:41:20;;;;;;;23.73;15.18;;;;;;;;;;4829581;29;20026;-74
2021/04/30 00:43:47;;;;;;;24.23;15.68;;;;;;;;;;4823209;29;20030;-73
2021/04/30 00:46:13;;;;;;;26.35;15.98;;;;;;;;;;4825949;29;20026;-71
2021/04/30 00:48:39;;;;;;;24.45;15.40;;;;;;;;;;4810227;29;20473;-72
2021/04/30 00:51:05;;;;;;;23.27;15.20;;;;;;;;;;4823235;29;20038;-73
2021/04/30 00:53:32;;;;;;;22.27;15.82;;;;;;;;;;4810207;29;21800;-73
2021/04/30 00:55:58;;;;;;;26.35;16.83;;;;;;;;;;4825460;29;20038;-70
2021/04/30 00:58:24;;;;;;;31.80;15.80;;;;;;;;;;4829986;29;20040;-73
2021/04/30 01:00:50;;;;;;;23.70;14.77;;;;;;;;;;4827429;29;20490;-74
2021/04/30 01:03:16;;;;;;;20.65;14.20;;;;;;;;;;4831996;29;20042;-73
2021/04/30 01:05:42;;;;;;;21.08;14.90;;;;;;;;;;4826868;29;20034;-72
2021/04/30 01:08:08;;;;;;;23.30;14.68;;;;;;;;;;4815150;29;20062;-74
2021/04/30 01:10:35;;;;;;;21.15;14.85;;;;;;;;;;4828988;29;20031;-73
2021/04/30 01:13:02;;;;;;;23.27;13.60;;;;;;;;;;4831551;29;20455;-74
2021/04/30 01:15:28;;;;;;;21.13;13.82;;;;;;;;;;4843426;29;20019;-73
2021/04/30 01:17:55;;;;;;;21.33;12.15;;;;;;;;;;4824626;29;20397;-73
2021/04/30 01:20:22;;;;;;;17.35;10.30;;;;;;;;;;4852810;29;20033;-73
2021/04/30 01:22:49;;;;;;;15.25;8.93;;;;;;;;;;4837104;29;20429;-73
2021/04/30 01:25:20;;;;;;;14.45;7.50;;;;;;;;;;4827795;29;20057;-73
2021/04/30 01:27:46;;;;;;;10.38;6.40;;;;;;;;;;4839410;29;20038;-72
2021/04/30 01:30:14;;;;;;;11.65;5.57;;;;;;;;;;4840311;29;20583;-73
2021/04/30 01:32:40;;;;;;;8.48;5.15;;;;;;;;;;4819684;29;20056;-73
2021/04/30 01:35:06;;;;;;;9.98;5.40;;;;;;;;;;4842147;29;20037;-73
2021/04/30 01:37:33;;;;;;;10.20;5.13;;;;;;;;;;4845737;29;20030;-73
2021/04/30 01:39:59;;;;;;;10.45;4.95;;;;;;;;;;4846975;29;20504;-74
2021/04/30 01:42:25;;;;;;;10.57;5.95;;;;;;;;;;4838653;29;20392;-72
2021/04/30 01:44:51;;;;;;;12.05;6.60;;;;;;;;;;4840503;29;20393;-73
2021/04/30 01:47:18;;;;;;;13.35;6.88;;;;;;;;;;4833179;29;20034;-73
2021/04/30 01:49:45;;;;;;;10.55;6.45;;;;;;;;;;4840244;29;20048;-74
2021/04/30 01:52:11;;;;;;;11.85;6.22;;;;;;;;;;4839817;29;20110;-73
2021/04/30 01:54:37;;;;;;;10.32;5.90;;;;;;;;;;4832749;29;20027;-74
2021/04/30 01:57:03;;;;;;;9.73;5.50;;;;;;;;;;4839724;29;20087;-72
2021/04/30 01:59:29;;;;;;;16.05;5.38;;;;;;;;;;4838006;29;20093;-72
2021/04/30 02:01:55;;;;;;;7.65;5.22;;;;;;;;;;4827556;29;20031;-73
2021/04/30 02:04:21;;;;;;;8.57;5.35;;;;;;;;;;4825023;29;20030;-73
2021/04/30 02:06:48;;;;;;;10.25;5.18;;;;;;;;;;4826103;29;20493;-73
2021/04/30 02:09:14;;;;;;;11.60;4.82;;;;;;;;;;4826981;29;20414;-74
2021/04/30 02:11:40;;;;;;;10.05;4.93;;;;;;;;;;4830574;29;20026;-72
2021/04/30 02:14:06;;;;;;;8.27;4.60;;;;;;;;;;4829193;29;20037;-72
2021/04/30 02:16:33;;;;;;;8.00;3.85;;;;;;;;;;4833823;29;20086;-76
2021/04/30 02:19:00;;;;;;;7.25;4.47;;;;;;;;;;4835148;29;20476;-73
2021/04/30 02:21:26;;;;;;;8.35;3.90;;;;;;;;;;4830782;29;20160;-74
2021/04/30 02:23:53;;;;;;;8.90;4.03;;;;;;;;;;4830591;29;20031;-74
2021/04/30 02:26:19;;;;;;;6.78;4.40;;;;;;;;;;4828923;29;20121;-73
2021/04/30 02:28:46;;;;;;;7.63;4.40;;;;;;;;;;4835721;29;20050;-73
2021/04/30 02:31:17;;;;;;;9.88;4.60;;;;;;;;;;4834135;29;20045;-73
2021/04/30 02:33:43;;;;;;;11.23;3.75;;;;;;;;;;4830545;29;20506;-74
2021/04/30 02:36:09;;;;;;;8.95;3.53;;;;;;;;;;4827297;29;20083;-74
2021/04/30 02:38:36;;;;;;;6.80;3.55;;;;;;;;;;4833608;29;20066;-74
2021/04/30 02:41:02;;;;;;;6.28;3.45;;;;;;;;;;4827687;29;20030;-73
2021/04/30 02:43:28;;;;;;;7.40;3.67;;;;;;;;;;4824450;29;20029;-74
2021/04/30 02:45:54;;;;;;;6.40;3.42;;;;;;;;;;4824048;29;20026;-75
2021/04/30 02:48:37;;;;;;;10.85;3.78;;;;;;;;;;4825129;29;20062;-74
2021/04/30 02:51:05;;;;;;;5.80;3.00;;;;;;;;;;4826413;29;20038;-70
2021/04/30 02:53:31;;;;;;;6.03;3.58;;;;;;;;;;4831712;29;20094;-73
2021/04/30 02:55:57;;;;;;;9.55;3.55;;;;;;;;;;4827564;29;20496;-74
2021/04/30 02:58:25;;;;;;;8.88;3.63;;;;;;;;;;4828878;29;20051;-73
2021/04/30 03:00:51;;;;;;;6.82;4.10;;;;;;;;;;4833154;29;20072;-74
2021/04/30 03:03:17;;;;;;;9.52;4.13;;;;;;;;;;4825908;29;20381;-74
2021/04/30 03:05:45;;;;;;;7.07;3.60;;;;;;;;;;4825404;29;20026;-71
2021/04/30 03:08:11;;;;;;;8.02;3.60;;;;;;;;;;4811250;29;20114;-73
2021/04/30 03:10:38;;;;;;;8.38;3.63;;;;;;;;;;4825518;29;20888;-74
2021/04/30 03:13:04;;;;;;;12.35;4.43;;;;;;;;;;4830601;29;20083;-73
2021/04/30 03:15:30;;;;;;;7.60;3.50;;;;;;;;;;4830946;29;20386;-73
2021/04/30 03:17:56;;;;;;;8.60;4.22;;;;;;;;;;4840285;29;20048;-73
2021/04/30 03:20:22;;;;;;;8.43;4.53;;;;;;;;;;4839746;29;20093;-73
2021/04/30 03:22:49;;;;;;;11.27;4.63;;;;;;;;;;4838251;29;20090;-74
2021/04/30 03:25:15;;;;;;;8.05;3.90;;;;;;;;;;4825584;29;20105;-74
2021/04/30 03:27:42;;;;;;;9.75;3.88;;;;;;;;;;4833263;29;20492;-74
2021/04/30 03:30:09;;;;;;;8.45;3.55;;;;;;;;;;4827228;29;20034;-74
2021/04/30 03:32:36;;;;;;;7.75;3.75;;;;;;;;;;4837305;29;20094;-73
2021/04/30 03:35:02;;;;;;;9.10;4.00;;;;;;;;;;4840384;29;20125;-74
2021/04/30 03:37:28;;;;;;;10.05;4.40;;;;;;;;;;4836467;29;20031;-74
2021/04/30 03:39:54;;;;;;;10.32;3.83;;;;;;;;;;4838373;29;20038;-74
2021/04/30 03:42:20;;;;;;;9.27;3.88;;;;;;;;;;4840115;29;20068;-73
2021/04/30 03:44:46;;;;;;;8.43;3.90;;;;;;;;;;4838385;29;20182;-74
2021/04/30 03:47:12;;;;;;;8.23;3.50;;;;;;;;;;4834987;29;20389;-72
2021/04/30 03:49:39;;;;;;;6.70;3.47;;;;;;;;;;4831566;29;20038;-73
2021/04/30 03:52:05;;;;;;;9.93;3.92;;;;;;;;;;4827889;29;20030;-74
2021/04/30 03:54:31;;;;;;;12.10;3.65;;;;;;;;;;4827293;29;20034;-74
2021/04/30 03:56:58;;;;;;;14.70;3.60;;;;;;;;;;4835542;29;20082;-73
2021/04/30 03:59:24;;;;;;;14.57;3.78;;;;;;;;;;4825484;29;20068;-74
2021/04/30 04:01:51;;;;;;;6.28;3.25;;;;;;;;;;4829186;29;20031;-72
2021/04/30 04:04:17;;;;;;;9.20;3.55;;;;;;;;;;4832733;29;20079;-73
2021/04/30 04:06:43;;;;;;;8.15;3.72;;;;;;;;;;4832708;29;20033;-72
2021/04/30 04:09:09;;;;;;;7.93;3.53;;;;;;;;;;4837266;29;20603;-72
2021/04/30 04:11:35;;;;;;;10.80;3.78;;;;;;;;;;4831202;29;20412;-73
2021/04/30 04:14:01;;;;;;;9.20;3.50;;;;;;;;;;4827704;29;20162;-73
2021/04/30 04:16:30;;;;;;;11.85;3.15;;;;;;;;;;4828032;29;20033;-72
2021/04/30 04:18:58;;;;;;;7.50;3.72;;;;;;;;;;4824824;29;20051;-72
2021/04/30 04:21:24;;;;;;;13.00;3.80;;;;;;;;;;4830145;29;20082;-73
2021/04/30 04:23:51;;;;;;;6.68;3.22;;;;;;;;;;4825438;29;20026;-73
2021/04/30 04:26:17;;;;;;;8.05;3.50;;;;;;;;;;4823118;29;20389;-73
2021/04/30 04:28:43;;;;;;;6.82;3.28;;;;;;;;;;4829936;29;20034;-75
2021/04/30 04:31:09;;;;;;;7.18;3.40;;;;;;;;;;4824375;29;20393;-73
2021/04/30 04:33:35;;;;;;;9.40;3.38;;;;;;;;;;4825308;29;20031;-74
2021/04/30 04:36:01;;;;;;;10.55;3.53;;;;;;;;;;4826926;29;20049;-73
2021/04/30 04:38:27;;;;;;;7.93;3.85;;;;;;;;;;4826875;29;20042;-73
2021/04/30 04:40:54;;;;;;;9.57;3.80;;;;;;;;;;4825850;29;20026;-74
2021/04/30 04:43:20;;;;;;;9.13;3.35;;;;;;;;;;4826361;29;20506;-74
2021/04/30 04:45:47;;;;;;;9.75;3.38;;;;;;;;;;4824679;29;20038;-74
2021/04/30 04:48:13;;;;;;;11.60;3.50;;;;;;;;;;4832137;29;20057;-74
2021/04/30 04:50:39;;;;;;;8.25;3.70;;;;;;;;;;4834624;29;20046;-73
2021/04/30 04:53:05;;;;;;;11.00;3.80;;;;;;;;;;4831775;29;20034;-73
2021/04/30 04:55:31;;;;;;;6.93;3.25;;;;;;;;;;4833588;29;20086;-74
2021/04/30 04:57:57;;;;;;;10.60;3.45;;;;;;;;;;4831231;29;20396;-74
2021/04/30 05:00:23;;;;;;;12.40;3.20;;;;;;;;;;4830570;29;20033;-71
2021/04/30 05:02:49;;;;;;;10.80;4.18;;;;;;;;;;4836925;29;20026;-74
2021/04/30 05:05:15;;;;;;;12.93;4.10;;;;;;;;;;4827229;29;20026;-74
2021/04/30 05:07:45;;;;;;;10.70;4.05;;;;;;;;;;4832290;29;20030;-73
2021/04/30 05:10:11;;;;;;;14.73;4.70;;;;;;;;;;4832618;29;20393;-75
2021/04/30 05:12:38;;;;;;;16.70;5.25;;;;;;;;;;4832038;29;20029;-74
2021/04/30 05:15:04;;;;;;;15.77;4.90;;;;;;;;;;4840485;29;20057;-74
2021/04/30 05:17:30;;;;;;;8.50;4.30;;;;;;;;;;4826848;29;20057;-71
2021/04/30 05:19:56;;;;;;;10.07;3.83;;;;;;;;;;4831734;29;20094;-73
2021/04/30 05:22:22;;;;;;;8.82;3.70;;;;;;;;;;4831660;29;20030;-71
2021/04/30 05:24:48;;;;;;;11.45;3.60;;;;;;;;;;4826017;29;20497;-73
2021/04/30 05:27:27;;;;;;;12.98;3.75;;;;;;;;;;4831798;29;20026;-90
2021/04/30 05:29:53;;;;;;;10.90;4.00;;;;;;;;;;4810095;29;20126;-75
2021/04/30 05:34:57;;;;;;;10.30;4.35;;;;;;;;;;4531534;23;20066;-76
2021/04/30 05:37:23;;;;;;;13.98;4.57;;;;;;;;;;4819233;29;20030;-73
2021/04/30 05:39:49;;;;;;;11.40;3.88;;;;;;;;;;4833597;29;20065;-73
2021/04/30 05:42:15;;;;;;;11.98;4.38;;;;;;;;;;4835269;29;20022;-73
2021/04/30 05:44:41;;;;;;;8.52;3.65;;;;;;;;;;4841475;29;20042;-73
2021/04/30 05:47:07;;;;;;;10.50;3.88;;;;;;;;;;4819829;29;20027;-74
2021/04/30 05:49:33;;;;;;;14.63;4.15;;;;;;;;;;4841685;29;20053;-72
2021/04/30 05:51:59;;;;;;;13.50;4.88;;;;;;;;;;4842572;29;20026;-76
2021/04/30 05:54:25;;;;;;;12.02;4.00;;;;;;;;;;4844053;29;20037;-85
2021/04/30 05:56:53;;;;;;;12.30;4.20;;;;;;;;;;4842341;29;20105;-86
2021/04/30 05:59:19;;;;;;;12.55;4.50;;;;;;;;;;4843595;29;20026;-88
2021/04/30 06:01:45;;;;;;;15.38;4.60;;;;;;;;;;4841955;29;20029;-76
2021/04/30 06:04:11;;;;;;;15.07;4.88;;;;;;;;;;4841602;29;20061;-92
2021/04/30 06:06:39;;;;;;;12.48;4.38;;;;;;;;;;4842621;29;20109;-80
2021/04/30 06:09:05;;;;;;;14.55;4.57;;;;;;;;;;4836306;29;20038;-82
2021/04/30 06:11:32;;;;;;;11.65;3.92;;;;;;;;;;4842458;29;20440;-75
2021/04/30 06:13:58;;;;;;;9.77;3.60;;;;;;;;;;4841940;29;20034;-72
2021/04/30 06:16:24;;;;;;;9.60;3.70;;;;;;;;;;4841899;29;20026;-76
2021/04/30 06:18:50;;;;;;;9.40;3.33;;;;;;;;;;4841728;29;20505;-74
2021/04/30 06:21:16;;;;;;;7.07;3.38;;;;;;;;;;4841006;29;20105;-78
2021/04/30 06:23:42;;;;;;;9.27;3.80;;;;;;;;;;4842579;29;20037;-74
2021/04/30 06:26:08;;;;;;;10.05;4.05;;;;;;;;;;4834439;29;20515;-77
2021/04/30 06:28:34;;;;;;;12.85;4.47;;;;;;;;;;4833829;29;20077;-75
2021/04/30 06:31:00;;;;;;;16.80;4.50;;;;;;;;;;4840595;29;20396;-74
2021/04/30 06:33:26;;;;;;;9.25;3.42;;;;;;;;;;4842755;29;20108;-72
2021/04/30 06:35:52;;;;;;;10.13;3.00;;;;;;;;;;4830022;29;20145;-70
2021/04/30 06:38:18;;;;;;;10.98;3.78;;;;;;;;;;4823237;29;20033;-71
2021/04/30 06:40:44;;;;;;;14.38;4.28;;;;;;;;;;4824980;29;20094;-69
2021/04/30 06:43:10;;;;;;;16.23;4.45;;;;;;;;;;4833099;29;20413;-73
2021/04/30 06:45:36;;;;;;;13.38;4.32;;;;;;;;;;4828073;29;20031;-78
2021/04/30 06:48:03;;;;;;;13.50;4.30;;;;;;;;;;4827607;29;20079;-74
2021/04/30 06:50:29;;;;;;;9.10;3.40;;;;;;;;;;4827315;29;20046;-75
2021/04/30 06:52:55;;;;;;;12.77;3.45;;;;;;;;;;4828393;29;20105;-77
2021/04/30 06:55:21;;;;;;;11.32;4.65;;;;;;;;;;4827332;29;20045;-81
2021/04/30 06:57:47;;;;;;;12.65;5.80;;;;;;;;;;4815685;29;20030;-78
2021/04/30 07:00:16;;;;;;;10.73;4.18;;;;;;;;;;4835052;29;20408;-75
2021/04/30 07:02:43;;;;;;;9.38;3.92;;;;;;;;;;4825600;29;20058;-74
2021/04/30 07:05:09;;;;;;;7.32;3.30;;;;;;;;;;4810954;29;20046;-75
2021/04/30 07:07:35;;;;;;;8.48;3.75;;;;;;;;;;4834105;29;20050;-79
2021/04/30 07:10:01;;;;;;;9.38;3.40;;;;;;;;;;4831705;29;20513;-77
2021/04/30 07:12:27;;;;;;;9.80;3.80;;;;;;;;;;4836565;29;20065;-77
2021/04/30 07:14:53;;;;;;;11.10;3.97;;;;;;;;;;4834339;29;20022;-77
2021/04/30 07:17:19;;;;;;;11.90;4.00;;;;;;;;;;4830412;29;20623;-76
2021/04/30 07:19:45;;;;;;;8.85;3.95;;;;;;;;;;4828860;29;20167;-79
2021/04/30 07:22:14;;;;;;;6.63;2.97;;;;;;;;;;4830312;29;20033;-74
2021/04/30 07:24:40;;;;;;;9.07;3.17;;;;;;;;;;4825238;29;20075;-74
2021/04/30 07:27:08;;;;;;;8.50;3.45;;;;;;;;;;4831208;29;20376;-83
2021/04/30 07:29:35;;;;;;;10.43;5.72;;;;;;;;;;4831594;29;20420;-74
2021/04/30 07:32:01;;;;;;;9.07;4.03;;;;;;;;;;4832568;29;20034;-81
2021/04/30 07:34:27;;;;;;;8.48;4.53;;;;;;;;;;4832971;29;20052;-81
2021/04/30 07:36:55;;;;;;;15.85;4.07;;;;;;;;;;4827570;29;20034;-77
2021/04/30 07:39:22;;;;;;;9.35;4.85;;;;;;;;;;4825909;29;20014;-77
2021/04/30 07:41:48;;;;;;;10.25;4.70;;;;;;;;;;4830607;29;20026;-80
2021/04/30 07:44:14;;;;;;;11.90;8.13;;;;;;;;;;4830948;29;20026;-82
2021/04/30 07:46:40;;;;;;;11.27;6.25;;;;;;;;;;4827727;29;20125;-71
2021/04/30 07:49:06;;;;;;;11.18;5.00;;;;;;;;;;4818931;29;20054;-83
2021/04/30 07:51:32;;;;;;;11.85;4.18;;;;;;;;;;4812876;29;20096;-78
2021/04/30 07:53:58;;;;;;;14.48;4.22;;;;;;;;;;4828087;29;20038;-76
2021/04/30 07:56:24;;;;;;;9.30;4.00;;;;;;;;;;4819826;29;20537;-78
2021/04/30 07:58:50;;;;;;;21.08;4.65;;;;;;;;;;4829944;29;20046;-77
2021/04/30 08:01:16;;;;;;;13.35;4.60;;;;;;;;;;4826849;29;20037;-77
2021/04/30 08:03:46;;;;;;;12.25;4.13;;;;;;;;;;4829405;29;20482;-73
2021/04/30 08:06:12;;;;;;;15.43;4.20;;;;;;;;;;4833742;29;20084;-72
2021/04/30 08:08:40;;;;;;;9.45;3.88;;;;;;;;;;4825718;29;20070;-73
2021/04/30 08:11:06;;;;;;;16.35;4.07;;;;;;;;;;4830949;29;20112;-73
2021/04/30 08:13:32;;;;;;;8.27;3.67;;;;;;;;;;4824767;29;20042;-74
2021/04/30 08:15:58;;;;;;;11.88;3.80;;;;;;;;;;4827011;29;20026;-78
2021/04/30 08:18:24;;;;;;;11.75;3.75;;;;;;;;;;4829279;29;20045;-71
2021/04/30 08:20:50;;;;;;;18.65;5.93;;;;;;;;;;4808241;29;20049;-74
2021/04/30 08:23:16;;;;;;;28.40;9.23;;;;;;;;;;4827286;29;20026;-77
2021/04/30 08:25:42;;;;;;;14.13;4.53;;;;;;;;;;4830489;29;20035;-72
2021/04/30 08:28:08;;;;;;;13.95;4.90;;;;;;;;;;4826843;29;20147;-72
2021/04/30 08:30:34;;;;;;;36.15;11.40;;;;;;;;;;4831834;29;20369;-72
2021/04/30 08:33:02;;;;;;;17.08;6.55;;;;;;;;;;4831655;29;20042;-72
2021/04/30 08:35:29;;;;;;;24.08;6.97;;;;;;;;;;4821162;29;20409;-72
2021/04/30 08:37:55;;;;;;;14.10;4.55;;;;;;;;;;4826563;29;20548;-72
2021/04/30 08:40:21;;;;;;;15.35;4.45;;;;;;;;;;4826598;29;20064;-71
2021/04/30 08:42:49;;;;;;;11.93;4.22;;;;;;;;;;4837794;29;20079;-72
2021/04/30 08:45:16;;;;;;;12.27;3.50;;;;;;;;;;4823542;29;20027;-72
2021/04/30 08:47:43;;;;;;;8.63;3.72;;;;;;;;;;4830339;29;20034;-72
2021/04/30 08:50:09;;;;;;;9.85;3.50;;;;;;;;;;4830492;29;20031;-74
2021/04/30 08:52:35;;;;;;;9.10;3.65;;;;;;;;;;4823709;29;20129;-72
2021/04/30 08:55:06;;;;;;;6.65;3.20;;;;;;;;;;4828205;29;20034;-75
2021/04/30 08:57:32;;;;;;;8.93;3.85;;;;;;;;;;4828503;29;20030;-72
2021/04/30 09:00:00;;;;;;;5.68;2.78;;;;;;;;;;4825311;29;20038;-71
2021/04/30 09:02:27;;;;;;;7.07;2.70;;;;;;;;;;4824315;29;20034;-74
2021/04/30 09:04:53;;;;;;;10.50;2.90;;;;;;;;;;4823951;29;20461;-72
2021/04/30 09:07:24;;;;;;;7.80;2.80;;;;;;;;;;4830968;29;20032;-72
2021/04/30 09:09:57;;;;;;;7.15;2.70;;;;;;;;;;4817196;29;20481;-75
2021/04/30 09:12:25;;;;;;;8.73;2.85;;;;;;;;;;4829420;29;20437;-73
2021/04/30 09:14:51;;;;;;;6.80;2.58;;;;;;;;;;4833828;29;20033;-71
2021/04/30 09:17:18;;;;;;;5.22;2.90;;;;;;;;;;4830062;29;20090;-74
2021/04/30 09:19:50;;;;;;;10.02;2.92;;;;;;;;;;4835058;29;20038;-71
2021/04/30 09:22:18;;;;;;;5.60;2.83;;;;;;;;;;4829731;29;20030;-72
2021/04/30 09:24:49;;;;;;;9.80;3.05;;;;;;;;;;4829816;29;20066;-73
2021/04/30 09:27:27;;;;;;;13.45;2.85;;;;;;;;;;4828471;29;20506;-72
2021/04/30 09:29:53;;;;;;;8.23;3.35;;;;;;;;;;4829547;29;20070;-72
2021/04/30 09:32:19;;;;;;;13.35;6.13;;;;;;;;;;4833544;29;20026;-71
2021/04/30 09:34:45;;;;;;;11.38;6.25;;;;;;;;;;4829297;29;20086;-72
2021/04/30 09:37:16;;;;;;;21.48;11.57;;;;;;;;;;4828276;29;20117;-72
2021/04/30 09:39:49;;;;;;;59.22;13.50;;;;;;;;;;4840066;29;20418;-72
2021/04/30 09:42:16;;;;;;;19.90;5.85;;;;;;;;;;4834021;29;20109;-72
2021/04/30 09:44:43;;;;;;;18.98;8.02;;;;;;;;;;4837889;29;20381;-75
2021/04/30 09:47:15;;;;;;;15.95;7.93;;;;;;;;;;4834154;29;20022;-72
2021/04/30 09:49:42;;;;;;;12.13;5.15;;;;;;;;;;4828730;29;20520;-71
2021/04/30 09:52:08;;;;;;;6.20;3.13;;;;;;;;;;4822627;29;20111;-71
2021/04/30 09:54:36;;;;;;;9.55;3.80;;;;;;;;;;4828069;29;20050;-71
2021/04/30 09:57:08;;;;;;;10.70;4.00;;;;;;;;;;4834365;29;20037;-71
2021/04/30 09:59:35;;;;;;;11.02;4.68;;;;;;;;;;4834812;29;20030;-72
2021/04/30 10:02:15;;;;;;;8.80;3.65;;;;;;;;;;4830347;29;20388;-71
2021/04/30 10:04:42;;;;;;;19.27;6.85;;;;;;;;;;4831361;29;20034;-71
2021/04/30 10:07:09;;;;;;;24.20;12.93;;;;;;;;;;4831988;29;20497;-73
2021/04/30 10:09:36;;;;;;;12.82;5.63;;;;;;;;;;4830987;29;20041;-78
2021/04/30 10:12:18;;;;;;;10.90;4.00;;;;;;;;;;4830151;29;20052;-73
2021/04/30 10:14:44;;;;;;;8.00;3.00;;;;;;;;;;4831946;29;20050;-81
2021/04/30 10:17:11;;;;;;;20.52;4.85;;;;;;;;;;4838463;29;20033;-72
2021/04/30 10:19:37;;;;;;;10.23;3.20;;;;;;;;;;4832336;29;20031;-71
2021/04/30 10:22:04;;;;;;;10.95;2.97;;;;;;;;;;4830643;29;20022;-73
2021/04/30 10:24:31;;;;;;;9.65;3.30;;;;;;;;;;4828565;29;20030;-72
2021/04/30 10:26:58;;;;;;;12.77;4.28;;;;;;;;;;4829751;29;20105;-72
2021/04/30 10:29:28;;;;;;;20.40;6.60;;;;;;;;;;4815151;29;20087;-71
2021/04/30 10:31:57;;;;;;;17.13;6.85;;;;;;;;;;4833817;29;20571;-71
2021/04/30 10:34:32;;;;;;;16.98;6.35;;;;;;;;;;4829734;29;20497;-71
2021/04/30 10:36:59;;;;;;;15.45;5.15;;;;;;;;;;4820016;29;20042;-73
2021/04/30 10:39:28;;;;;;;12.70;6.15;;;;;;;;;;4826495;29;20465;-71
2021/04/30 10:41:54;;;;;;;9.00;4.10;;;;;;;;;;4825770;29;20090;-78
2021/04/30 10:44:24;;;;;;;11.25;3.65;;;;;;;;;;4828368;29;20053;-73
2021/04/30 10:47:16;;;;;;;9.20;3.13;;;;;;;;;;4828996;29;20113;-74
2021/04/30 10:49:43;;;;;;;8.82;2.92;;;;;;;;;;4828973;29;20038;-82
2021/04/30 10:52:21;;;;;;;11.85;3.67;;;;;;;;;;4828165;29;20053;-84
2021/04/30 10:54:59;;;;;;;9.32;2.92;;;;;;;;;;4834742;29;20481;-83
2021/04/30 10:57:25;;;;;;;9.07;3.33;;;;;;;;;;4831826;29;20030;-70
2021/04/30 10:59:52;;;;;;;12.85;3.20;;;;;;;;;;4834915;29;20049;-71
2021/04/30 11:02:32;;;;;;;19.52;7.63;;;;;;;;;;4825993;29;20026;-71
2021/04/30 11:05:09;;;;;;;11.75;5.40;;;;;;;;;;4833304;29;20038;-71
2021/04/30 11:07:48;;;;;;;8.48;4.63;;;;;;;;;;4838615;29;20097;-71
2021/04/30 11:10:23;;;;;;;9.15;5.13;;;;;;;;;;4832779;29;20054;-70
2021/04/30 11:13:04;;;;;;;14.30;7.97;;;;;;;;;;4826735;29;20079;-70
2021/04/30 11:15:51;;;;;;;12.65;4.65;;;;;;;;;;4829725;29;20030;-71
2021/04/30 11:18:21;;;;;;;13.98;4.88;;;;;;;;;;4836075;29;20086;-71
2021/04/30 11:21:00;;;;;;;10.77;3.88;;;;;;;;;;4831456;29;20041;-71
2021/04/30 11:23:28;;;;;;;13.55;6.20;;;;;;;;;;4810299;29;20388;-71
2021/04/30 11:26:00;;;;;;;13.40;5.50;;;;;;;;;;4827368;29;20481;-71
2021/04/30 11:28:33;;;;;;;12.60;5.43;;;;;;;;;;4835226;29;20038;-70
2021/04/30 11:43:52;;;;;;;12.90;4.07;;;;;;;;;;5109751;27;20437;-74
2021/04/30 11:46:18;;;;;;;17.88;4.00;;;;;;;;;;5089930;28;20035;-72
2021/04/30 11:48:45;;;;;;;8.75;3.75;;;;;;;;;;5080484;28;20034;-73
2021/04/30 11:51:12;;;;;;;12.50;5.00;;;;;;;;;;5064023;28;20807;-74
2021/04/30 11:53:40;;;;;;;10.00;4.75;;;;;;;;;;5088705;28;20039;-73
2021/04/30 11:56:07;;;;;;;10.52;4.30;;;;;;;;;;5088593;28;20017;-72
2021/04/30 11:58:42;;;;;;;13.68;4.85;;;;;;;;;;5094909;28;20064;-74
2021/04/30 12:01:10;;;;;;;12.45;3.63;;;;;;;;;;5086514;28;20491;-73
2021/04/30 12:03:42;;;;;;;12.15;3.65;;;;;;;;;;5088979;28;20103;-73
2021/04/30 12:06:13;;;;;;;10.40;4.05;;;;;;;;;;5088410;28;20028;-74
2021/04/30 12:08:40;;;;;;;7.35;3.28;;;;;;;;;;5087633;28;20024;-73
2021/04/30 12:11:06;;;;;;;10.10;3.60;;;;;;;;;;5089902;28;20111;-74
2021/04/30 12:13:32;;;;;;;12.20;3.63;;;;;;;;;;5089941;28;20028;-74
2021/04/30 12:15:58;;;;;;;9.35;3.42;;;;;;;;;;5070062;28;20020;-73
2021/04/30 12:18:31;;;;;;;7.70;3.50;;;;;;;;;;5097421;28;20169;-72
2021/04/30 12:20:57;;;;;;;9.60;3.55;;;;;;;;;;5092660;28;20048;-73
2021/04/30 12:23:23;;;;;;;9.32;3.30;;;;;;;;;;5092092;28;20036;-73
2021/04/30 12:25:52;;;;;;;9.35;3.58;;;;;;;;;;5084520;28;20066;-72
2021/04/30 12:28:22;;;;;;;7.57;3.17;;;;;;;;;;5089674;28;20027;-72
2021/04/30 12:30:50;;;;;;;10.30;3.25;;;;;;;;;;5064458;28;20371;-71
2021/04/30 12:33:23;;;;;;;7.80;3.13;;;;;;;;;;5093320;28;20181;-71
2021/04/30 12:35:49;;;;;;;15.77;3.28;;;;;;;;;;5087021;28;20082;-71
2021/04/30 12:38:16;;;;;;;8.32;3.10;;;;;;;;;;5087523;28;20024;-72
2021/04/30 12:40:46;;;;;;;9.05;3.00;;;;;;;;;;5085233;28;20024;-71
2021/04/30 12:43:12;;;;;;;6.35;3.00;;;;;;;;;;5079775;28;20156;-71
2021/04/30 12:45:40;;;;;;;5.93;3.03;;;;;;;;;;5073478;28;20025;-71
2021/04/30 12:48:07;;;;;;;10.73;3.10;;;;;;;;;;5071939;28;20020;-72
2021/04/30 12:50:33;;;;;;;7.82;3.17;;;;;;;;;;5075218;28;20032;-71
2021/04/30 12:53:00;;;;;;;11.05;3.05;;;;;;;;;;5072791;28;20076;-72
2021/04/30 12:55:26;;;;;;;6.97;2.60;;;;;;;;;;5072634;28;20025;-71
2021/04/30 12:58:02;;;;;;;10.45;3.53;;;;;;;;;;5073019;28;20036;-71
2021/04/30 13:00:28;;;;;;;9.45;3.15;;;;;;;;;;5071502;28;20449;-71
2021/04/30 13:02:54;;;;;;;7.03;2.90;;;;;;;;;;5066906;28;20060;-72
2021/04/30 13:05:21;;;;;;;7.93;3.35;;;;;;;;;;5063254;28;20047;-71
2021/04/30 13:07:48;;;;;;;7.53;2.90;;;;;;;;;;5068930;28;20028;-71
2021/04/30 13:10:27;;;;;;;7.38;3.08;;;;;;;;;;5070506;28;20024;-72
2021/04/30 13:13:06;;;;;;;6.72;2.92;;;;;;;;;;5067060;28;20037;-71
2021/04/30 13:15:32;;;;;;;8.55;2.70;;;;;;;;;;5065663;28;20020;-71
2021/04/30 13:17:58;;;;;;;6.93;2.90;;;;;;;;;;5064994;28;20096;-71
2021/04/30 13:20:32;;;;;;;8.98;3.17;;;;;;;;;;5069148;28;20555;-71
2021/04/30 13:23:11;;;;;;;6.85;2.90;;;;;;;;;;5065929;28;20043;-72
2021/04/30 13:25:37;;;;;;;6.57;3.10;;;;;;;;;;5068955;28;20119;-72
2021/04/30 13:28:31;;;;;;;6.55;2.60;;;;;;;;;;5064351;28;20029;-72
2021/04/30 13:30:57;;;;;;;26.27;4.05;;;;;;;;;;5062279;28;20493;-73
2021/04/30 13:33:31;;;;;;;9.45;2.85;;;;;;;;;;5069736;28;20047;-74
2021/04/30 13:36:06;;;;;;;9.55;3.22;;;;;;;;;;5069576;28;20489;-73
2021/04/30 13:38:32;;;;;;;8.05;3.22;;;;;;;;;;5062997;28;20546;-73
2021/04/30 13:41:20;;;;;;;6.32;2.95;;;;;;;;;;5069929;28;20115;-74
2021/04/30 13:43:46;;;;;;;10.88;2.97;;;;;;;;;;5069858;28;20094;-72
2021/04/30 13:46:13;;;;;;;9.48;3.13;;;;;;;;;;5070533;28;20069;-73
2021/04/30 13:48:40;;;;;;;8.68;3.10;;;;;;;;;;5063851;28;20024;-73
2021/04/30 13:51:06;;;;;;;6.82;2.95;;;;;;;;;;5067509;28;20040;-74
2021/04/30 13:53:32;;;;;;;8.10;3.00;;;;;;;;;;5070554;28;20462;-73
2021/04/30 13:55:58;;;;;;;8.00;2.90;;;;;;;;;;5066898;28;20016;-74
2021/04/30 13:58:25;;;;;;;9.25;3.20;;;;;;;;;;5076835;28;20482;-74
2021/04/30 14:00:51;;;;;;;9.77;2.97;;;;;;;;;;5073861;28;20043;-73
2021/04/30 14:03:17;;;;;;;8.38;3.35;;;;;;;;;;5069807;28;20082;-73
2021/04/30 14:05:43;;;;;;;7.55;3.08;;;;;;;;;;5074298;28;20025;-73
2021/04/30 14:08:09;;;;;;;10.45;3.13;;;;;;;;;;5073561;28;20103;-73
2021/04/30 14:10:35;;;;;;;5.85;2.75;;;;;;;;;;5073446;28;20090;-73
2021/04/30 14:13:01;;;;;;;10.00;3.05;;;;;;;;;;5072681;28;20032;-73
2021/04/30 14:15:27;;;;;;;6.78;3.10;;;;;;;;;;5071942;28;20104;-73
2021/04/30 14:17:53;;;;;;;6.65;2.63;;;;;;;;;;5068351;28;20268;-71
2021/04/30 14:20:19;;;;;;;10.07;2.88;;;;;;;;;;5077292;28;20028;-72
2021/04/30 14:22:45;;;;;;;11.48;3.15;;;;;;;;;;5069981;28;20120;-73
2021/04/30 14:25:12;;;;;;;12.40;3.17;;;;;;;;;;5071819;28;20025;-73
2021/04/30 14:27:38;;;;;;;8.82;3.25;;;;;;;;;;5067880;28;20482;-74
2021/04/30 14:30:05;;;;;;;6.63;2.95;;;;;;;;;;5073516;28;20028;-74
2021/04/30 14:32:31;;;;;;;9.65;2.95;;;;;;;;;;5068282;28;20049;-73
2021/04/30 14:34:57;;;;;;;6.80;3.00;;;;;;;;;;5065761;28;20421;-73
2021/04/30 14:37:23;;;;;;;10.95;3.90;;;;;;;;;;5078153;28;20093;-73
2021/04/30 14:39:50;;;;;;;17.17;3.90;;;;;;;;;;5074937;28;20095;-74
2021/04/30 14:42:16;;;;;;;9.63;3.05;;;;;;;;;;5066763;28;20058;-73
2021/04/30 14:44:43;;;;;;;8.13;3.17;;;;;;;;;;5067520;28;20118;-71
2021/04/30 14:47:09;;;;;;;12.43;3.55;;;;;;;;;;5068477;28;20103;-72
2021/04/30 14:49:35;;;;;;;7.28;3.17;;;;;;;;;;5071705;28;20035;-72
2021/04/30 14:52:01;;;;;;;9.85;3.50;;;;;;;;;;5066348;28;20043;-72